createdAt,value
2022-11-15T00:03:03.650Z,98978.61
2022-11-15T00:08:24.372Z,98968.33
2022-11-15T00:13:49.733Z,98966.70
2022-11-15T00:19:10.355Z,98959.19
2022-11-15T00:24:31.088Z,98950.33
2022-11-15T00:29:51.468Z,98941.26
2022-11-15T00:35:12.164Z,98936.52
2022-11-15T00:40:32.793Z,98930.83
2022-11-15T00:45:53.407Z,98921.81
2022-11-15T00:51:14.046Z,98920.84
2022-11-15T00:56:34.574Z,98917.52
2022-11-15T01:01:55.291Z,98915.63
2022-11-15T01:07:16.503Z,98907.13
2022-11-15T01:12:37.575Z,98898.27
2022-11-15T01:17:57.918Z,98900.41
2022-11-15T01:23:18.707Z,98897.63
2022-11-15T01:28:41.930Z,98894.20
2022-11-15T01:34:02.401Z,98886.70
2022-11-15T01:39:22.646Z,98878.09
2022-11-15T01:44:50.421Z,98870.10
2022-11-15T01:50:15.547Z,98861.16
2022-11-15T01:55:36.239Z,98850.70
2022-11-15T02:00:56.986Z,98854.09
2022-11-15T02:06:18.305Z,98848.48
2022-11-15T02:11:39.114Z,98850.28
2022-11-15T02:17:21.332Z,98846.14
2022-11-15T02:23:19.675Z,98835.57
2022-11-15T02:28:45.835Z,98827.98
2022-11-15T02:34:21.216Z,98826.61
2022-11-15T02:40:00.901Z,98823.56
2022-11-15T02:45:31.357Z,98819.30
2022-11-15T02:50:52.758Z,98821.31
2022-11-15T02:56:13.796Z,98812.02
2022-11-15T03:02:02.378Z,98806.17
2022-11-15T03:08:02.675Z,98797.45
2022-11-15T03:13:33.303Z,98794.95
2022-11-15T03:19:18.460Z,98787.20
2022-11-15T03:24:39.900Z,98787.61
2022-11-15T03:30:03.515Z,98784.38
2022-11-15T03:35:26.752Z,98775.98
2022-11-15T03:40:56.548Z,98766.38
2022-11-15T03:46:42.316Z,98763.31
2022-11-15T03:52:05.744Z,98755.88
2022-11-15T03:57:26.429Z,98752.25
2022-11-15T04:02:46.975Z,98743.04
2022-11-15T04:08:07.670Z,98739.48
2022-11-15T04:13:28.288Z,98735.33
2022-11-15T04:19:09.145Z,98733.39
2022-11-15T04:24:29.717Z,98734.41
2022-11-15T04:29:50.366Z,98736.61
2022-11-15T04:35:11.148Z,98737.97
2022-11-15T04:40:33.147Z,98728.64
2022-11-15T04:45:53.958Z,98725.57
2022-11-15T04:51:15.401Z,98722.05
2022-11-15T04:56:36.166Z,98717.04
2022-11-15T05:01:56.782Z,98709.14
2022-11-15T05:07:17.315Z,98699.44
2022-11-15T05:12:38.115Z,98695.04
2022-11-15T05:18:01.482Z,98686.88
2022-11-15T05:23:21.905Z,98676.73
2022-11-15T05:28:42.549Z,98667.64
2022-11-15T05:34:05.811Z,98665.95
2022-11-15T05:39:27.192Z,98662.47
2022-11-15T05:44:50.786Z,98658.50
2022-11-15T05:50:16.925Z,98653.08
2022-11-15T05:55:40.142Z,98650.48
2022-11-15T06:01:01.601Z,98652.66
2022-11-15T06:06:22.449Z,98659.30
2022-11-15T06:11:43.159Z,98658.36
2022-11-15T06:17:08.597Z,98651.20
2022-11-15T06:22:31.675Z,98651.61
2022-11-15T06:27:53.976Z,98654.16
2022-11-15T06:33:14.434Z,98655.60
2022-11-15T06:38:35.101Z,98658.15
2022-11-15T06:43:55.497Z,98662.73
2022-11-15T06:49:15.947Z,98662.31
2022-11-15T06:54:36.836Z,98660.52
2022-11-15T06:59:57.440Z,98663.96
2022-11-15T07:05:18.166Z,98662.66
2022-11-15T07:10:38.993Z,98667.91
2022-11-15T07:16:03.921Z,98664.10
2022-11-15T07:21:27.544Z,98672.41
2022-11-15T07:26:48.662Z,98672.05
2022-11-15T07:32:10.437Z,98663.04
2022-11-15T07:37:30.801Z,98658.42
2022-11-15T07:42:53.896Z,98660.30
2022-11-15T07:48:14.343Z,98668.19
2022-11-15T07:53:35.078Z,98660.29
2022-11-15T07:58:56.205Z,98662.24
2022-11-15T08:04:16.730Z,98659.98
2022-11-15T08:09:37.459Z,98655.38
2022-11-15T08:14:57.914Z,98647.50
2022-11-15T08:20:20.166Z,98642.02
2022-11-15T08:25:40.847Z,98637.66
2022-11-15T08:31:02.193Z,98636.58
2022-11-15T08:36:22.848Z,98639.98
2022-11-15T08:41:43.947Z,98633.39
2022-11-15T08:47:04.463Z,98626.76
2022-11-15T08:52:25.083Z,98625.48
2022-11-15T08:57:46.292Z,98620.05
2022-11-15T09:03:08.310Z,98616.63
2022-11-15T09:08:47.000Z,98609.91
2022-11-15T09:14:13.886Z,98611.80
2022-11-15T09:19:34.688Z,98602.46
2022-11-15T09:24:55.075Z,98607.44
2022-11-15T09:30:15.817Z,98603.38
2022-11-15T09:35:36.088Z,98593.45
2022-11-15T09:41:15.384Z,98583.45
2022-11-15T09:46:46.606Z,98574.85
2022-11-15T09:52:24.206Z,98567.23
2022-11-15T09:57:34.189Z,98561.87
2022-11-15T10:02:48.550Z,98556.50
2022-11-15T10:08:18.119Z,98552.95
2022-11-15T10:13:22.604Z,98543.77
2022-11-15T10:18:53.976Z,98541.73
2022-11-15T10:23:56.070Z,98536.91
2022-11-15T10:28:58.034Z,98536.71
2022-11-15T10:34:15.284Z,98539.81
2022-11-15T10:39:17.129Z,98535.05
2022-11-15T10:44:30.638Z,98534.16
2022-11-15T10:49:34.120Z,98532.11
2022-11-15T10:54:41.677Z,98526.60
2022-11-15T10:59:50.770Z,98526.05
2022-11-15T11:04:53.283Z,98517.64
2022-11-15T11:10:49.342Z,98509.15
2022-11-15T11:15:46.578Z,98508.10
2022-11-15T11:21:04.228Z,98501.69
2022-11-15T11:26:08.839Z,98496.27
2022-11-15T11:31:22.854Z,98488.73
2022-11-15T11:36:59.193Z,98484.25
2022-11-15T11:42:24.228Z,98470.67
2022-11-15T11:47:34.800Z,98469.20
2022-11-15T11:52:51.013Z,98459.76
2022-11-15T11:58:14.284Z,98447.11
2022-11-15T12:03:16.217Z,98434.22
2022-11-15T12:08:27.449Z,98433.19
2022-11-15T12:13:35.707Z,98424.48
2022-11-15T12:18:38.992Z,98415.11
2022-11-15T12:23:51.209Z,98417.88
2022-11-15T12:29:16.345Z,98415.27
2022-11-15T12:34:21.251Z,98408.44
2022-11-15T12:40:03.974Z,98400.05
2022-11-15T12:45:32.748Z,98394.98
2022-11-15T12:50:53.134Z,98383.88
2022-11-15T12:56:04.129Z,98381.17
2022-11-15T13:01:08.903Z,98371.33
2022-11-15T13:07:00.166Z,98360.31
2022-11-15T13:12:35.427Z,98355.61
2022-11-15T13:17:41.452Z,98354.85
2022-11-15T13:22:51.930Z,98353.50
2022-11-15T13:27:55.631Z,98357.22
2022-11-15T13:33:02.047Z,98353.97
2022-11-15T13:38:05.797Z,98351.02
2022-11-15T13:43:36.871Z,98349.29
2022-11-15T13:48:40.173Z,98346.98
2022-11-15T13:53:47.661Z,98343.68
2022-11-15T13:58:49.563Z,98329.80
2022-11-15T14:03:59.216Z,98321.31
2022-11-15T14:09:10.150Z,98324.42
2022-11-15T14:14:16.493Z,98323.80
2022-11-15T14:19:21.114Z,98324.58
2022-11-15T14:24:23.015Z,98317.54
2022-11-15T14:29:33.555Z,98317.39
2022-11-15T14:34:35.535Z,98310.66
2022-11-15T14:39:37.475Z,98305.36
2022-11-15T14:44:42.302Z,98298.92
2022-11-15T14:49:48.301Z,98290.78
2022-11-15T14:54:50.163Z,98291.41
2022-11-15T14:59:52.110Z,98286.31
2022-11-15T15:04:54.768Z,98280.70
2022-11-15T15:10:24.612Z,98269.39
2022-11-15T15:15:26.353Z,98260.51
2022-11-15T15:20:28.874Z,98256.91
2022-11-15T15:25:36.004Z,98254.59
2022-11-15T15:30:37.810Z,98254.92
2022-11-15T15:35:39.733Z,98251.17
2022-11-15T15:40:41.545Z,98253.42
2022-11-15T15:45:43.704Z,98245.92
2022-11-15T15:50:46.181Z,98241.95
2022-11-15T15:55:48.008Z,98245.85
2022-11-15T16:00:49.832Z,98250.73
2022-11-15T16:05:51.968Z,98246.37
2022-11-15T16:10:53.941Z,98248.36
2022-11-15T16:15:56.159Z,98246.81
2022-11-15T16:20:58.110Z,98248.79
2022-11-15T16:25:59.981Z,98249.31
2022-11-15T16:31:06.838Z,98240.73
2022-11-15T16:36:30.337Z,98236.36
2022-11-15T16:41:33.300Z,98235.01
2022-11-15T16:46:35.592Z,98233.74
2022-11-15T16:51:38.184Z,98227.83
2022-11-15T16:56:40.453Z,98223.76
2022-11-15T17:01:50.702Z,98214.98
2022-11-15T17:06:53.309Z,98213.27
2022-11-15T17:11:55.220Z,98210.15
2022-11-15T17:16:57.068Z,98203.30
2022-11-15T17:21:58.989Z,98198.73
2022-11-15T17:27:00.854Z,98192.58
2022-11-15T17:32:02.827Z,98187.15
2022-11-15T17:37:04.673Z,98176.84
2022-11-15T17:42:06.498Z,98174.61
2022-11-15T17:47:08.658Z,98169.64
2022-11-15T17:52:10.611Z,98159.61
2022-11-15T17:57:12.508Z,98150.91
2022-11-15T18:02:14.557Z,98140.96
2022-11-15T18:07:18.849Z,98135.17
2022-11-15T18:12:20.691Z,98133.72
2022-11-15T18:17:23.924Z,98134.25
2022-11-15T18:22:25.747Z,98132.79
2022-11-15T18:27:27.569Z,98134.97
2022-11-15T18:32:29.372Z,98133.55
2022-11-15T18:37:31.193Z,98130.29
2022-11-15T18:42:33.123Z,98131.86
2022-11-15T18:47:35.027Z,98137.05
2022-11-15T18:52:36.798Z,98132.15
2022-11-15T18:57:38.656Z,98123.56
2022-11-15T19:02:40.518Z,98122.11
2022-11-15T19:07:42.376Z,98120.90
2022-11-15T19:12:44.212Z,98117.30
2022-11-15T19:17:46.059Z,98124.30
2022-11-15T19:22:47.885Z,98129.36
2022-11-15T19:27:49.787Z,98123.67
2022-11-15T19:32:51.927Z,98118.29
2022-11-15T19:37:53.821Z,98114.90
2022-11-15T19:42:55.652Z,98113.05
2022-11-15T19:47:59.655Z,98102.83
2022-11-15T19:53:01.452Z,98096.95
2022-11-15T19:58:03.339Z,98095.33
2022-11-15T20:03:05.131Z,98094.28
2022-11-15T20:08:07.069Z,98099.44
2022-11-15T20:13:08.907Z,98102.15
2022-11-15T20:18:10.716Z,98094.14
2022-11-15T20:23:13.712Z,98089.18
2022-11-15T20:28:19.352Z,98081.48
2022-11-15T20:33:22.791Z,98078.02
2022-11-15T20:38:24.663Z,98081.46
2022-11-15T20:43:26.788Z,98082.27
2022-11-15T20:48:28.684Z,98082.20
2022-11-15T20:53:31.696Z,98075.94
2022-11-15T20:58:35.078Z,98072.55
2022-11-15T21:03:37.714Z,98072.41
2022-11-15T21:08:58.362Z,98064.73
2022-11-15T21:14:05.017Z,98059.17
2022-11-15T21:19:10.272Z,98050.55
2022-11-15T21:24:12.109Z,98046.77
2022-11-15T21:29:17.259Z,98042.88
2022-11-15T21:34:19.907Z,98037.59
2022-11-15T21:39:21.831Z,98028.85
2022-11-15T21:44:23.766Z,98021.15
2022-11-15T21:49:26.020Z,98012.64
2022-11-15T21:54:27.883Z,98006.08
2022-11-15T21:59:29.705Z,98003.44
2022-11-15T22:04:31.657Z,98010.07
2022-11-15T22:09:37.441Z,98007.60
2022-11-15T22:14:40.286Z,98000.44
2022-11-15T22:19:52.265Z,97987.52
2022-11-15T22:24:54.953Z,97981.67
2022-11-15T22:29:56.870Z,97976.45
2022-11-15T22:34:58.804Z,97970.35
2022-11-15T22:40:00.733Z,97963.50
2022-11-15T22:45:02.672Z,97962.06
2022-11-15T22:50:06.555Z,97956.83
2022-11-15T22:55:08.898Z,97950.71
2022-11-15T23:00:16.357Z,97944.02
2022-11-15T23:05:18.347Z,97938.65
2022-11-15T23:10:38.963Z,97936.74
2022-11-15T23:15:59.566Z,97929.06
2022-11-15T23:21:12.088Z,97915.63
2022-11-15T23:26:14.090Z,97911.85
2022-11-15T23:31:34.767Z,97908.04
2022-11-15T23:36:36.785Z,97899.85
2022-11-15T23:41:38.766Z,97896.17
2022-11-15T23:46:40.731Z,97895.81
2022-11-15T23:51:42.682Z,97895.00
2022-11-15T23:56:44.630Z,97891.41
